createdAt,value
2022-12-03T00:01:19.197Z,95352.28
2022-12-03T00:03:47.204Z,95353.09
2022-12-03T00:06:17.618Z,95353.09
2022-12-03T00:08:45.359Z,95383.75
2022-12-03T00:11:13.317Z,95389.28
2022-12-03T00:13:41.411Z,95378.34
2022-12-03T00:16:09.271Z,95387.81
2022-12-03T00:18:37.177Z,95372.50
2022-12-03T00:21:05.239Z,95356.22
2022-12-03T00:23:40.163Z,95363.22
2022-12-03T00:26:09.770Z,95301.78
2022-12-03T00:28:37.625Z,95299.00
2022-12-03T00:31:05.705Z,95277.03
2022-12-03T00:33:33.653Z,95292.50
2022-12-03T00:36:01.435Z,95281.25
2022-12-03T00:38:29.183Z,95276.38
2022-12-03T00:40:58.417Z,95254.22
2022-12-03T00:43:26.313Z,95264.66
2022-12-03T00:45:54.133Z,95276.38
2022-12-03T00:48:22.078Z,95267.91
2022-12-03T00:50:49.858Z,95262.06
2022-12-03T00:53:17.703Z,95250.97
2022-12-03T00:55:45.561Z,95267.09
2022-12-03T00:58:14.675Z,95258.47
2022-12-03T01:00:42.498Z,95232.41
2022-12-03T01:03:10.823Z,95232.25
2022-12-03T01:05:38.760Z,95232.41
2022-12-03T01:08:07.179Z,95235.66
2022-12-03T01:10:35.382Z,95229.63
2022-12-03T01:13:03.320Z,95239.91
2022-12-03T01:15:35.081Z,95235.66
2022-12-03T01:18:03.068Z,95210.25
2022-12-03T01:20:31.164Z,95173.94
2022-12-03T01:22:58.936Z,95131.16
2022-12-03T01:25:26.817Z,95085.44
2022-12-03T01:27:54.679Z,95071.94
2022-12-03T01:30:22.934Z,95038.09
2022-12-03T01:32:51.182Z,95010.47
2022-12-03T01:35:20.251Z,94979.06
2022-12-03T01:37:47.983Z,94926.56
2022-12-03T01:40:20.980Z,94896.34
2022-12-03T01:42:49.008Z,94854.88
2022-12-03T01:45:23.752Z,94865.94
2022-12-03T01:47:53.105Z,94866.13
2022-12-03T01:50:27.022Z,94866.94
2022-12-03T01:52:56.984Z,94877.81
2022-12-03T01:55:27.211Z,94897.97
2022-12-03T01:57:58.258Z,94920.06
2022-12-03T02:00:27.977Z,94933.38
2022-12-03T02:02:59.286Z,94943.47
2022-12-03T02:05:29.094Z,94963.94
2022-12-03T02:07:57.883Z,94964.41
2022-12-03T02:10:29.037Z,94979.88
2022-12-03T02:13:00.969Z,94975.66
2022-12-03T02:15:28.819Z,94968.47
2022-12-03T02:17:58.328Z,95007.53
2022-12-03T02:20:26.575Z,94990.63
2022-12-03T02:23:01.050Z,94965.22
2022-12-03T02:25:33.311Z,94935.00
2022-12-03T02:28:02.696Z,94889.53
2022-12-03T02:30:31.854Z,94836.38
2022-12-03T02:33:00.327Z,94784.09
2022-12-03T02:35:31.388Z,94740.41
2022-12-03T02:38:03.589Z,94687.53
2022-12-03T02:40:34.165Z,94629.25
2022-12-03T02:43:03.873Z,94574.59
2022-12-03T02:45:35.956Z,94528.38
2022-12-03T02:48:07.638Z,94488.19
2022-12-03T02:50:39.004Z,94438.41
2022-12-03T02:53:11.458Z,94395.66
2022-12-03T02:55:42.002Z,94357.78
2022-12-03T02:58:11.263Z,94324.06
2022-12-03T03:00:39.817Z,94292.78
2022-12-03T03:03:10.009Z,94270.31
2022-12-03T03:05:41.514Z,94250.25
2022-12-03T03:08:11.657Z,94198.84
2022-12-03T03:10:43.228Z,94207.34
2022-12-03T03:13:13.046Z,94198.94
2022-12-03T03:15:42.336Z,94194.72
2022-12-03T03:18:11.514Z,94189.28
2022-12-03T03:20:39.878Z,94206.56
2022-12-03T03:23:15.447Z,94235.03
2022-12-03T03:25:47.833Z,94271.13
2022-12-03T03:28:17.087Z,94277.56
2022-12-03T03:30:45.523Z,94289.75
2022-12-03T03:33:15.965Z,94305.97
2022-12-03T03:35:46.377Z,94310.44
2022-12-03T03:38:15.043Z,94333.13
2022-12-03T03:40:45.242Z,94348.00
2022-12-03T03:43:14.212Z,94382.69
2022-12-03T03:45:42.656Z,94400.34
2022-12-03T03:48:11.617Z,94424.16
2022-12-03T03:50:39.663Z,94441.69
2022-12-03T03:53:07.840Z,94459.34
2022-12-03T03:55:35.841Z,94456.09
2022-12-03T03:58:05.329Z,94441.09
2022-12-03T04:00:33.789Z,94465.00
2022-12-03T04:03:01.793Z,94452.69
2022-12-03T04:05:30.008Z,94428.03
2022-12-03T04:07:58.908Z,94405.34
2022-12-03T04:10:43.564Z,94387.88
2022-12-03T04:13:12.826Z,94364.22
2022-12-03T04:15:40.641Z,94335.38
2022-12-03T04:18:31.253Z,94320.66
2022-12-03T04:21:13.056Z,94202.94
2022-12-03T04:23:40.863Z,94267.53
2022-12-03T04:26:26.288Z,94262.53
2022-12-03T04:28:55.701Z,94285.19
2022-12-03T04:31:41.382Z,94295.84
2022-12-03T04:34:28.135Z,94323.72
2022-12-03T04:36:56.418Z,94349.00
2022-12-03T04:39:24.477Z,94374.25
2022-12-03T04:41:52.608Z,94399.34
2022-12-03T04:44:35.700Z,94427.22
2022-12-03T04:47:06.089Z,94448.13
2022-12-03T04:49:35.131Z,94477.44
2022-12-03T04:52:02.968Z,94489.09
2022-12-03T04:54:30.834Z,94501.94
2022-12-03T04:56:58.650Z,94514.56
2022-12-03T04:59:27.820Z,94527.22
2022-12-03T05:01:56.023Z,94540.53
2022-12-03T05:04:24.062Z,94553.34
2022-12-03T05:06:52.325Z,94555.31
2022-12-03T05:09:20.499Z,94559.00
2022-12-03T05:11:48.525Z,94581.88
2022-12-03T05:14:16.524Z,94577.47
2022-12-03T05:16:45.845Z,94586.91
2022-12-03T05:19:13.733Z,94603.13
2022-12-03T05:21:40.615Z,94600.34
2022-12-03T05:24:08.706Z,94609.59
2022-12-03T05:26:36.714Z,94609.59
2022-12-03T05:29:04.673Z,94619.66
2022-12-03T05:31:32.716Z,94619.47
2022-12-03T05:34:01.868Z,94633.91
2022-12-03T05:36:29.636Z,94634.72
2022-12-03T05:38:57.499Z,94645.63
2022-12-03T05:41:42.697Z,94684.56
2022-12-03T05:44:10.709Z,94683.59
2022-12-03T05:46:38.626Z,94685.22
2022-12-03T05:49:07.897Z,94703.69
2022-12-03T05:51:35.786Z,94692.84
2022-12-03T05:54:03.777Z,94703.69
2022-12-03T05:56:31.557Z,94712.13
2022-12-03T05:58:59.502Z,94711.34
2022-12-03T06:01:27.448Z,94712.50
2022-12-03T06:03:55.381Z,94729.81
2022-12-03T06:06:24.627Z,94727.41
2022-12-03T06:08:52.462Z,94724.78
2022-12-03T06:11:20.298Z,94737.47
2022-12-03T06:13:48.115Z,94745.91
2022-12-03T06:16:15.982Z,94739.06
2022-12-03T06:18:43.916Z,94745.91
2022-12-03T06:21:11.714Z,94758.59
2022-12-03T06:23:44.571Z,94757.63
2022-12-03T06:26:12.785Z,94768.03
2022-12-03T06:28:40.696Z,94759.22
2022-12-03T06:31:08.599Z,94761.84
2022-12-03T06:33:36.426Z,94777.09
2022-12-03T06:36:04.675Z,94776.13
2022-12-03T06:38:32.469Z,94782.94
2022-12-03T06:41:01.736Z,94788.78
2022-12-03T06:43:30.959Z,94787.16
2022-12-03T06:45:58.993Z,94793.00
2022-12-03T06:48:26.876Z,94789.75
2022-12-03T06:50:54.632Z,94783.91
2022-12-03T06:53:22.450Z,94783.56
2022-12-03T06:55:50.351Z,94789.75
2022-12-03T06:58:19.628Z,94775.16
2022-12-03T07:00:47.455Z,94795.44
2022-12-03T07:03:15.331Z,94789.94
2022-12-03T07:05:43.205Z,94784.56
2022-12-03T07:08:11.292Z,94796.25
2022-12-03T07:10:39.223Z,94799.81
2022-12-03T07:13:07.080Z,94808.28
2022-12-03T07:15:36.225Z,94808.28
2022-12-03T07:18:04.000Z,94813.94
2022-12-03T07:20:31.812Z,94819.94
2022-12-03T07:22:59.684Z,94831.00
2022-12-03T07:25:27.536Z,94825.78
2022-12-03T07:27:55.466Z,94829.03
2022-12-03T07:30:24.345Z,94846.91
2022-12-03T07:32:53.581Z,94852.13
2022-12-03T07:35:21.731Z,94852.75
2022-12-03T07:37:49.542Z,94860.56
2022-12-03T07:40:17.396Z,94869.69
2022-12-03T07:42:45.179Z,94876.69
2022-12-03T07:45:13.171Z,94882.19
2022-12-03T07:47:40.991Z,94897.63
2022-12-03T07:50:11.462Z,94897.28
2022-12-03T07:52:39.343Z,94910.94
2022-12-03T07:55:08.160Z,94919.38
2022-12-03T07:57:35.949Z,94932.88
2022-12-03T08:00:06.195Z,94940.69
2022-12-03T08:02:34.103Z,94934.84
2022-12-03T08:05:02.246Z,94934.50
2022-12-03T08:07:31.649Z,94931.44
2022-12-03T08:09:59.634Z,94956.78
2022-12-03T08:12:40.146Z,94974.19
2022-12-03T08:15:12.682Z,95011.59
2022-12-03T08:17:42.333Z,94991.91
2022-12-03T08:20:16.280Z,95000.34
2022-12-03T08:22:47.880Z,95014.00
2022-12-03T08:25:21.368Z,95031.91
2022-12-03T08:27:49.587Z,94996.50
2022-12-03T08:30:18.249Z,95037.41
2022-12-03T08:32:46.679Z,95051.09
2022-12-03T08:35:16.502Z,95058.56
2022-12-03T08:37:45.649Z,95048.66
2022-12-03T08:40:23.200Z,95037.41
2022-12-03T08:42:51.386Z,95046.72
2022-12-03T08:45:41.102Z,95073.69
2022-12-03T08:48:32.444Z,95096.66
2022-12-03T08:51:03.085Z,95071.25
2022-12-03T08:53:35.409Z,95113.56
2022-12-03T08:56:06.031Z,95122.03
2022-12-03T08:58:42.221Z,95106.09
2022-12-03T09:01:30.127Z,95101.38
2022-12-03T09:04:04.392Z,95072.41
2022-12-03T09:06:32.527Z,95095.03
2022-12-03T09:09:06.506Z,95103.50
2022-12-03T09:11:34.775Z,95131.31
2022-12-03T09:14:03.742Z,95102.50
2022-12-03T09:16:31.841Z,95113.56
2022-12-03T09:19:02.754Z,95126.91
2022-12-03T09:21:30.496Z,95125.28
2022-12-03T09:23:58.363Z,95163.19
2022-12-03T09:26:28.350Z,95181.72
2022-12-03T09:28:56.880Z,95181.91
2022-12-03T09:31:24.694Z,95233.69
2022-12-03T09:33:52.666Z,95231.56
2022-12-03T09:36:20.467Z,95253.53
2022-12-03T09:38:48.480Z,95271.47
2022-12-03T09:41:16.658Z,95294.91
2022-12-03T09:46:36.241Z,95355.22
2022-12-03T09:49:10.751Z,95328.97
2022-12-03T09:51:42.980Z,95350.00
2022-12-03T09:54:14.328Z,95356.03
2022-12-03T09:56:42.137Z,95419.28
2022-12-03T09:59:15.834Z,95426.94
2022-12-03T10:01:43.901Z,95364.16
2022-12-03T10:04:12.059Z,95406.06
2022-12-03T10:06:45.499Z,95467.53
2022-12-03T10:09:17.253Z,95477.78
2022-12-03T10:11:45.766Z,95454.97
2022-12-03T10:14:18.192Z,95414.34
2022-12-03T10:16:46.872Z,95428.72
2022-12-03T10:19:22.950Z,95487.91
2022-12-03T10:21:51.332Z,95505.50
2022-12-03T10:24:21.829Z,95552.00
2022-12-03T10:26:53.355Z,95557.41
2022-12-03T10:29:28.323Z,95559.69
2022-12-03T10:32:03.673Z,95520.19
2022-12-03T10:34:33.341Z,95532.09
2022-12-03T10:37:11.622Z,95508.13
2022-12-03T10:39:58.662Z,95526.88
2022-12-03T10:42:27.811Z,95492.13
2022-12-03T10:45:15.323Z,95421.19
2022-12-03T10:47:43.774Z,95377.03
2022-12-03T10:50:18.061Z,95387.94
2022-12-03T10:52:46.533Z,95383.72
2022-12-03T10:55:15.998Z,95340.72
2022-12-03T10:57:45.843Z,95368.56
2022-12-03T11:00:19.326Z,95395.59
2022-12-03T11:02:54.815Z,95369.38
2022-12-03T11:05:27.883Z,95407.50
2022-12-03T11:07:56.318Z,95369.38
2022-12-03T11:10:24.613Z,95387.13
2022-12-03T11:13:29.817Z,95358.47
2022-12-03T11:15:59.667Z,95346.75
2022-12-03T11:19:01.680Z,95350.97
2022-12-03T11:21:30.502Z,95371.34
2022-12-03T11:24:22.020Z,95362.69
2022-12-03T11:27:19.396Z,95347.56
2022-12-03T11:29:50.493Z,95322.94
2022-12-03T11:33:07.340Z,95328.00
2022-12-03T11:36:12.230Z,95301.09
2022-12-03T11:39:01.119Z,95324.75
2022-12-03T11:41:32.169Z,95341.53
2022-12-03T11:44:06.280Z,95331.13
2022-12-03T11:46:44.190Z,95329.63
2022-12-03T11:49:31.053Z,95343.47
2022-12-03T11:52:02.608Z,95290.66
2022-12-03T11:54:35.540Z,95307.94
2022-12-03T11:57:03.888Z,95320.50
2022-12-03T11:59:31.691Z,95296.88
2022-12-03T12:01:59.480Z,95306.00
2022-12-03T12:04:33.574Z,95277.97
2022-12-03T12:07:03.187Z,95268.22
2022-12-03T12:09:51.747Z,95249.31
2022-12-03T12:12:22.195Z,95251.09
2022-12-03T12:14:50.025Z,95275.53
2022-12-03T12:17:32.311Z,95306.00
2022-12-03T12:20:25.967Z,95312.03
2022-12-03T12:22:56.565Z,95308.63
2022-12-03T12:25:41.635Z,95300.47
2022-12-03T12:28:09.824Z,95313.16
2022-12-03T12:30:37.719Z,95331.41
2022-12-03T12:33:18.970Z,95339.91
2022-12-03T12:35:47.135Z,95325.38
2022-12-03T12:38:19.392Z,95314.66
2022-12-03T12:40:49.335Z,95319.34
2022-12-03T12:43:24.822Z,95306.81
2022-12-03T12:45:55.072Z,95327.19
2022-12-03T12:48:25.628Z,95351.63
2022-12-03T12:51:00.921Z,95357.47
2022-12-03T12:53:33.024Z,95338.91
2022-12-03T12:56:02.447Z,95308.44
2022-12-03T12:58:33.364Z,95272.09
2022-12-03T13:01:04.938Z,95273.91
2022-12-03T13:03:35.537Z,95255.34
2022-12-03T13:06:03.762Z,95241.81
2022-12-03T13:08:34.904Z,95216.59
2022-12-03T13:11:03.747Z,95188.09
2022-12-03T13:13:41.788Z,95175.72
2022-12-03T13:16:18.604Z,95176.50
2022-12-03T13:18:48.075Z,95176.03
2022-12-03T13:21:25.744Z,95174.41
2022-12-03T13:23:57.324Z,95141.91
2022-12-03T13:26:36.523Z,95117.16
2022-12-03T13:29:12.573Z,95153.91
2022-12-03T13:31:43.732Z,95152.28
2022-12-03T13:34:17.332Z,95157.16
2022-12-03T13:36:51.993Z,95175.06
2022-12-03T13:39:30.378Z,95161.56
2022-12-03T13:42:17.940Z,95136.84
2022-12-03T13:44:48.573Z,95131.94
2022-12-03T13:47:20.655Z,95086.41
2022-12-03T13:49:53.686Z,95115.19
2022-12-03T13:52:37.205Z,95089.00
2022-12-03T13:55:11.580Z,95070.44
2022-12-03T13:57:39.330Z,95069.63
2022-12-03T14:00:08.531Z,95074.50
2022-12-03T14:02:36.576Z,95073.69
2022-12-03T14:05:04.678Z,95082.00
2022-12-03T14:07:32.798Z,95055.31
2022-12-03T14:10:00.650Z,95046.91
2022-12-03T14:12:33.727Z,95055.31
2022-12-03T14:15:01.854Z,95065.56
2022-12-03T14:17:30.343Z,95076.44
2022-12-03T14:19:58.161Z,95066.38
2022-12-03T14:22:26.075Z,95065.38
2022-12-03T14:24:55.017Z,95077.25
2022-12-03T14:27:24.675Z,95069.28
2022-12-03T14:29:54.389Z,95071.41
2022-12-03T14:32:22.513Z,95070.25
2022-12-03T14:34:50.353Z,95066.84
2022-12-03T14:37:18.423Z,95067.66
2022-12-03T14:39:46.200Z,95070.44
2022-12-03T14:42:14.051Z,95045.41
2022-12-03T14:44:42.609Z,95034.16
2022-12-03T14:47:12.020Z,95016.91
2022-12-03T14:49:39.998Z,95016.09
2022-12-03T14:52:12.001Z,95027.34
2022-12-03T14:54:42.348Z,95033.34
2022-12-03T14:57:11.635Z,95046.84
2022-12-03T14:59:39.809Z,95028.50
2022-12-03T15:02:07.980Z,95033.19
2022-12-03T15:04:37.528Z,95034.16
2022-12-03T15:07:05.369Z,95005.22
2022-12-03T15:09:33.316Z,95005.22
2022-12-03T15:12:01.212Z,94996.94
2022-12-03T15:14:29.282Z,95001.97
2022-12-03T15:16:57.292Z,94998.38
2022-12-03T15:19:25.164Z,94997.75
2022-12-03T15:21:54.423Z,94992.88
2022-12-03T15:24:22.456Z,94984.88
2022-12-03T15:26:52.239Z,94982.28
2022-12-03T15:29:20.190Z,94989.28
2022-12-03T15:31:48.442Z,94970.41
2022-12-03T15:34:22.249Z,94970.59
2022-12-03T15:36:50.622Z,94969.78
2022-12-03T15:39:19.967Z,94969.78
2022-12-03T15:41:47.899Z,94968.97
2022-12-03T15:44:16.076Z,94957.88
2022-12-03T15:46:44.016Z,94964.72
2022-12-03T15:49:12.207Z,94931.06
2022-12-03T15:51:40.031Z,94903.75
2022-12-03T15:54:08.394Z,94901.34
2022-12-03T15:56:37.759Z,94898.91
2022-12-03T15:59:05.766Z,94900.69
2022-12-03T16:01:33.903Z,94898.91
2022-12-03T16:04:01.872Z,94896.47
2022-12-03T16:06:29.993Z,94893.69
2022-12-03T16:08:57.940Z,94899.72
2022-12-03T16:11:25.790Z,94907.34
2022-12-03T16:13:55.034Z,94895.03
2022-12-03T16:16:23.127Z,94901.50
2022-12-03T16:18:51.243Z,94911.75
2022-12-03T16:21:24.952Z,94908.97
2022-12-03T16:23:54.448Z,94922.63
2022-12-03T16:26:22.444Z,94924.25
2022-12-03T16:28:50.357Z,94918.22
2022-12-03T16:31:20.149Z,94934.31
2022-12-03T16:33:48.411Z,94948.63
2022-12-03T16:36:16.908Z,94941.78
2022-12-03T16:38:44.978Z,94947.00
2022-12-03T16:41:13.170Z,94947.63
2022-12-03T16:43:40.966Z,94956.44
2022-12-03T16:46:25.556Z,94949.25
2022-12-03T16:48:57.794Z,94969.78
2022-12-03T16:51:26.313Z,94972.38
2022-12-03T16:53:54.556Z,94982.63
2022-12-03T16:56:22.397Z,94965.38
2022-12-03T16:58:50.243Z,94972.03
2022-12-03T17:01:18.411Z,94972.22
2022-12-03T17:03:46.312Z,94975.63
2022-12-03T17:06:15.615Z,94971.22
2022-12-03T17:08:49.024Z,94974.00
2022-12-03T17:11:17.882Z,94949.25
2022-12-03T17:13:45.675Z,94944.22
2022-12-03T17:16:14.748Z,94933.34
2022-12-03T17:18:42.714Z,94944.41
2022-12-03T17:21:10.565Z,94946.00
2022-12-03T17:23:39.698Z,94951.06
2022-12-03T17:26:09.068Z,94958.06
2022-12-03T17:28:36.882Z,94952.03
2022-12-03T17:31:04.780Z,94937.56
2022-12-03T17:33:32.681Z,94939.19
2022-12-03T17:36:00.659Z,94940.81
2022-12-03T17:38:30.656Z,94946.00
2022-12-03T17:41:03.468Z,94937.09
2022-12-03T17:43:31.300Z,94961.28
2022-12-03T17:46:00.097Z,94964.56
2022-12-03T17:48:29.307Z,94970.59
2022-12-03T17:50:58.106Z,94979.84
2022-12-03T17:53:26.012Z,94976.28
2022-12-03T17:55:53.854Z,94989.94
2022-12-03T17:58:22.996Z,94996.75
2022-12-03T18:00:50.966Z,94980.31
2022-12-03T18:03:19.042Z,95004.88
2022-12-03T18:05:46.832Z,94997.22
2022-12-03T18:08:14.617Z,94999.19
2022-12-03T18:10:42.479Z,95001.81
2022-12-03T18:13:10.339Z,94984.72
2022-12-03T18:15:39.561Z,94982.28
2022-12-03T18:18:07.420Z,94985.34
2022-12-03T18:20:35.341Z,94984.72
2022-12-03T18:23:04.073Z,94985.53
2022-12-03T18:25:32.113Z,94992.38
2022-12-03T18:27:59.896Z,94991.56
2022-12-03T18:30:27.969Z,94984.72
2022-12-03T18:32:57.515Z,94977.88
2022-12-03T18:35:25.490Z,94992.38
2022-12-03T18:37:53.463Z,94986.34
2022-12-03T18:40:24.665Z,94969.44
2022-12-03T18:42:52.531Z,94980.66
2022-12-03T18:45:20.608Z,94984.09
2022-12-03T18:47:48.726Z,94973.84
2022-12-03T18:50:18.160Z,94984.72
2022-12-03T18:52:45.988Z,94981.13
2022-12-03T18:55:18.577Z,94999.19
2022-12-03T18:57:46.694Z,95010.09
2022-12-03T19:00:15.820Z,94993.16
2022-12-03T19:05:34.721Z,95006.03
2022-12-03T19:08:03.150Z,94998.03
2022-12-03T19:10:31.308Z,94991.56
2022-12-03T19:12:59.313Z,94982.94
2022-12-03T19:15:27.153Z,94977.88
2022-12-03T19:17:55.161Z,94979.50
2022-12-03T19:20:23.136Z,94971.41
2022-12-03T19:22:52.372Z,94981.94
2022-12-03T19:25:20.400Z,94994.78
2022-12-03T19:27:50.119Z,95000.00
2022-12-03T19:30:18.374Z,94997.56
2022-12-03T19:32:46.449Z,94998.38
2022-12-03T19:35:14.344Z,94996.41
2022-12-03T19:37:42.278Z,94995.59
2022-12-03T19:40:12.134Z,95011.72
2022-12-03T19:42:40.556Z,95002.44
2022-12-03T19:45:09.671Z,95014.94
2022-12-03T19:47:37.998Z,95027.97
2022-12-03T19:50:07.208Z,95021.78
2022-12-03T19:52:36.590Z,95014.94
2022-12-03T19:55:05.121Z,95009.75
2022-12-03T19:57:34.287Z,95025.19
2022-12-03T20:00:02.273Z,95019.34
2022-12-03T20:02:30.231Z,95014.94
2022-12-03T20:04:58.195Z,95023.41
2022-12-03T20:07:26.116Z,95035.63
2022-12-03T20:09:54.645Z,95027.81
2022-12-03T20:12:23.271Z,95004.88
2022-12-03T20:14:52.469Z,95012.50
2022-12-03T20:17:20.287Z,94995.94
2022-12-03T20:19:48.375Z,95021.31
2022-12-03T20:22:16.367Z,95013.97
2022-12-03T20:24:44.331Z,95013.66
2022-12-03T20:27:12.174Z,95030.22
2022-12-03T20:29:40.187Z,95038.06
2022-12-03T20:32:09.752Z,95038.69
2022-12-03T20:34:37.719Z,95037.25
2022-12-03T20:37:06.017Z,95042.09
2022-12-03T20:39:33.858Z,95053.00
2022-12-03T20:42:01.686Z,95047.97
2022-12-03T20:44:29.592Z,95047.16
2022-12-03T20:46:57.669Z,95047.16
2022-12-03T20:49:27.019Z,95052.38
2022-12-03T20:51:56.233Z,95047.16
2022-12-03T20:54:26.488Z,95042.75
2022-12-03T20:56:54.286Z,95046.16
2022-12-03T20:59:22.132Z,95046.16
2022-12-03T21:01:50.128Z,95050.41
2022-12-03T21:04:18.401Z,95050.41
2022-12-03T21:06:47.815Z,95046.81
2022-12-03T21:09:15.665Z,95054.78
2022-12-03T21:11:43.753Z,95041.00
2022-12-03T21:14:12.488Z,95060.81
2022-12-03T21:19:31.140Z,95046.22
2022-12-03T21:22:00.302Z,95050.41
2022-12-03T21:24:28.351Z,95045.19
2022-12-03T21:26:56.464Z,95049.59
2022-12-03T21:29:24.787Z,95043.91
2022-12-03T21:31:52.611Z,95040.16
2022-12-03T21:34:20.538Z,95048.94
2022-12-03T21:36:48.416Z,95053.97
2022-12-03T21:39:18.756Z,95057.22
2022-12-03T21:42:34.133Z,95050.41
2022-12-03T21:44:35.039Z,95042.75
2022-12-03T21:47:11.512Z,95045.34
2022-12-03T21:49:42.034Z,95049.59
2022-12-03T21:52:10.003Z,95057.22
2022-12-03T21:54:39.505Z,95058.03
2022-12-03T21:57:07.324Z,95052.03
2022-12-03T21:59:35.178Z,95064.06
2022-12-03T22:02:03.182Z,95061.47
2022-12-03T22:04:31.165Z,95059.84
2022-12-03T22:06:59.074Z,95053.97
2022-12-03T22:09:27.409Z,95058.84
2022-12-03T22:11:59.379Z,95061.47
2022-12-03T22:14:27.529Z,95059.19
2022-12-03T22:16:55.506Z,95064.72
2022-12-03T22:19:24.846Z,95067.34
2022-12-03T22:21:52.913Z,95072.56
2022-12-03T22:24:20.864Z,95067.34
2022-12-03T22:26:48.713Z,95074.19
2022-12-03T22:29:18.046Z,95078.41
2022-12-03T22:31:46.066Z,95078.41
2022-12-03T22:34:14.197Z,95067.66
2022-12-03T22:36:42.102Z,95078.41
2022-12-03T22:39:11.314Z,95084.25
2022-12-03T22:41:39.435Z,95082.97
2022-12-03T22:44:07.278Z,95075.78
2022-12-03T22:46:37.561Z,95080.03
2022-12-03T22:49:07.598Z,95091.09
2022-12-03T22:51:36.413Z,95092.72
2022-12-03T22:54:05.552Z,95085.88
2022-12-03T22:56:33.955Z,95077.75
2022-12-03T22:59:01.810Z,95082.63
2022-12-03T23:01:32.327Z,95087.50
2022-12-03T23:04:02.283Z,95084.25
2022-12-03T23:06:31.898Z,95089.47
2022-12-03T23:09:00.400Z,95079.84
2022-12-03T23:11:29.257Z,95085.06
2022-12-03T23:13:58.894Z,95098.75
2022-12-03T23:16:30.077Z,95080.19
2022-12-03T23:18:59.871Z,95076.63
2022-12-03T23:21:33.452Z,95082.63
2022-12-03T23:24:04.282Z,95077.41
2022-12-03T23:26:36.122Z,95080.03
2022-12-03T23:29:05.181Z,95068.97
2022-12-03T23:31:34.290Z,95059.66
2022-12-03T23:34:02.952Z,95066.19
2022-12-03T23:36:33.758Z,95065.69
2022-12-03T23:39:01.756Z,95080.84
2022-12-03T23:41:29.630Z,95081.00
2022-12-03T23:43:58.375Z,95062.78
2022-12-03T23:46:27.563Z,95081.66
2022-12-03T23:48:58.501Z,95075.63
2022-12-03T23:51:26.762Z,95089.47
2022-12-03T23:53:57.462Z,95089.31
2022-12-03T23:56:27.709Z,95085.06
2022-12-03T23:58:55.962Z,95092.72
